Time;durP1;ratioP1;P1;durP2;ratioP2;P2;SDS_P1;SDS_P2;PMS_P1;PMS_P2;Temp;Humidity;BMP_temperature;BMP_pressure;BME280_temperature;BME280_humidity;BME280_pressure;Samples;Min_cycle;Max_cycle;Signal;HPM_P1;HPM_P2
2021/12/14 00:00:20;;;;;;;35.38;17.73;;;;;;;-2.12;82.54;100060.44;5012422;28;20037;-80
2021/12/14 00:02:46;;;;;;;36.85;16.92;;;;;;;-2.10;82.63;100058.84;5016956;28;20079;-83
2021/12/14 00:05:12;;;;;;;;;;;;;;;-2.11;82.84;100048.59;5030228;28;20447;-79
2021/12/14 00:07:38;;;;;;;38.03;17.05;;;;;;;-2.10;82.85;100056.31;5031983;28;19956;-79
2021/12/14 00:10:12;;;;;;;34.40;17.88;;;;;;;-2.11;82.90;100064.75;4998126;28;20038;-79
2021/12/14 00:12:53;;;;;;;34.05;17.05;;;;;;;-2.11;83.06;100059.66;5016435;28;20052;-80
2021/12/14 00:15:19;;;;;;;40.97;17.73;;;;;;;-2.11;83.32;100069.81;5018729;28;20033;-81
2021/12/14 00:17:47;;;;;;;41.53;17.15;;;;;;;-2.16;82.95;100063.59;4999479;28;20029;-79
2021/12/14 00:20:28;;;;;;;36.15;17.67;;;;;;;-2.13;83.38;100073.06;4996030;28;20420;-83
2021/12/14 00:25:37;;;;;;;37.35;17.30;;;;;;;-2.08;83.37;100072.50;4995930;28;20026;-79
2021/12/14 00:28:14;;;;;;;34.97;16.90;;;;;;;-2.13;82.71;100055.28;4996601;28;20049;-81
2021/12/14 00:30:40;;;;;;;37.13;17.48;;;;;;;-2.09;83.02;100060.59;5010743;28;20128;-79
2021/12/14 00:33:07;;;;;;;36.65;18.77;;;;;;;-2.11;83.18;100067.28;4995708;28;20084;-80
2021/12/14 00:35:33;;;;;;;38.15;16.67;;;;;;;-2.09;83.08;100067.34;4998509;28;20063;-80
2021/12/14 00:37:59;;;;;;;39.10;17.23;;;;;;;-2.11;83.61;100062.19;5014688;28;20037;-79
2021/12/14 00:40:31;;;;;;;43.70;17.50;;;;;;;-2.10;83.28;100061.41;5011943;28;20450;-79
2021/12/14 00:42:57;;;;;;;39.70;18.48;;;;;;;-2.11;83.29;100069.81;5011954;28;20049;-80
2021/12/14 00:45:24;;;;;;;43.40;19.20;;;;;;;-2.11;83.65;100068.91;5006136;28;20044;-80
2021/12/14 00:47:50;;;;;;;43.50;19.65;;;;;;;-2.15;84.07;100064.50;4982133;28;20097;-80
2021/12/14 00:50:17;;;;;;;41.40;20.13;;;;;;;-2.11;84.73;100074.00;5007050;28;20059;-80
2021/12/14 00:52:43;;;;;;;36.22;18.25;;;;;;;-2.14;84.04;100077.28;5015128;28;20501;-80
2021/12/14 00:55:11;;;;;;;40.13;18.70;;;;;;;-2.14;84.04;100072.19;5031214;28;20071;-79
2021/12/14 00:57:37;;;;;;;39.50;18.48;;;;;;;-2.15;84.36;100069.56;5032347;28;20090;-79
2021/12/14 01:00:10;;;;;;;34.97;16.75;;;;;;;-2.17;84.76;100078.78;5029085;28;20037;-79
2021/12/14 01:02:37;;;;;;;32.50;16.77;;;;;;;-2.15;84.65;100069.56;5015777;28;20575;-81
2021/12/14 01:05:10;;;;;;;33.15;17.15;;;;;;;-2.15;85.27;100067.91;4998617;28;20048;-79
2021/12/14 01:07:36;;;;;;;32.60;17.38;;;;;;;-2.14;84.46;100062.03;5015131;28;20041;-80
2021/12/14 01:10:06;;;;;;;30.73;15.70;;;;;;;-2.13;84.66;100065.44;5031592;28;20069;-79
2021/12/14 01:13:07;;;;;;;34.83;16.80;;;;;;;-2.07;84.95;100068.28;4998697;28;20041;-79
2021/12/14 01:15:31;;;;;;;31.85;16.48;;;;;;;-2.07;84.31;100066.63;5015497;28;20057;-79
2021/12/14 01:18:29;;;;;;;32.38;16.02;;;;;;;-2.10;84.38;100057.97;5015299;28;20133;-79
2021/12/14 01:21:02;;;;;;;34.75;16.75;;;;;;;-2.12;83.92;100065.50;5001360;28;20050;-79
2021/12/14 01:23:32;;;;;;;35.75;17.67;;;;;;;-2.09;84.09;100070.75;5015338;28;20420;-79
2021/12/14 01:26:03;;;;;;;36.13;17.17;;;;;;;-2.09;84.59;100065.69;5001469;28;20400;-80
2021/12/14 01:28:29;;;;;;;33.25;16.85;;;;;;;-2.08;84.06;100064.88;5004222;28;20075;-80
2021/12/14 01:31:03;;;;;;;;;;;;;;;-2.08;83.95;100058.94;5031530;28;20500;-80
2021/12/14 01:33:30;;;;;;;36.25;16.33;;;;;;;-2.08;84.30;100058.94;5015586;28;19917;-80
2021/12/14 01:35:56;;;;;;;37.90;17.38;;;;;;;-2.09;84.06;100063.13;5014456;28;20037;-80
2021/12/14 01:40:54;;;;;;;37.22;17.95;;;;;;;-2.14;84.01;100049.31;5001153;28;20409;-80
2021/12/14 01:43:39;;;;;;;37.50;17.88;;;;;;;-2.12;84.16;100050.25;4998541;28;20077;-80
2021/12/14 01:46:17;;;;;;;43.50;19.10;;;;;;;-2.12;84.11;100054.47;4997435;28;20038;-81
2021/12/14 01:48:43;;;;;;;39.28;17.98;;;;;;;-2.12;84.03;100049.38;5029314;28;20049;-80
2021/12/14 01:51:27;;;;;;;33.97;17.83;;;;;;;-2.15;84.31;100044.16;5022465;28;20036;-80
2021/12/14 01:54:00;;;;;;;37.25;17.75;;;;;;;-2.18;84.43;100044.88;5000084;28;20414;-80
2021/12/14 01:56:26;;;;;;;;;;;;;;;-2.17;84.02;100050.81;5007741;28;20064;-79
2021/12/14 01:58:56;;;;;;;41.70;18.55;;;;;;;-2.17;84.11;100045.72;5017968;28;20332;-78
2021/12/14 02:01:24;;;;;;;41.42;18.42;;;;;;;-2.18;84.83;100044.88;5029965;28;20033;-79
2021/12/14 02:04:00;;;;;;;42.80;19.65;;;;;;;-2.27;84.55;100030.81;5018154;28;20056;-80
2021/12/14 02:06:29;;;;;;;40.90;20.13;;;;;;;-2.24;85.00;100036.94;5002548;28;20049;-80
2021/12/14 02:08:57;;;;;;;42.60;19.65;;;;;;;-2.22;85.28;100037.00;5001984;28;20041;-80
2021/12/14 02:11:25;;;;;;;44.67;20.23;;;;;;;-2.20;84.89;100036.31;5017966;28;20069;-80
2021/12/14 02:13:52;;;;;;;40.13;18.83;;;;;;;-2.16;85.13;100038.19;5001658;28;20064;-81
2021/12/14 02:16:21;;;;;;;42.17;18.75;;;;;;;-2.14;85.36;100039.16;4986864;28;20029;-80
2021/12/14 02:18:49;;;;;;;;;;;;;;;-2.11;85.20;100049.50;5014909;28;20033;-80
2021/12/14 02:21:15;;;;;;;37.13;18.52;;;;;;;-2.11;85.21;100052.03;4997688;28;19917;-81
2021/12/14 02:23:43;;;;;;;;;;;;;;;-2.11;84.86;100046.03;5001474;28;20488;-80
2021/12/14 02:26:12;;;;;;;35.63;17.52;;;;;;;-2.16;84.98;100044.94;5018472;28;19921;-81
2021/12/14 02:28:38;;;;;;;38.63;18.25;;;;;;;-2.17;85.00;100051.69;5001563;28;20044;-80
2021/12/14 02:31:05;;;;;;;34.70;17.77;;;;;;;-2.20;84.70;100043.91;5017674;28;20512;-81
2021/12/14 02:33:33;;;;;;;33.78;17.65;;;;;;;-2.17;84.55;100045.72;4982284;28;20048;-79
2021/12/14 02:36:01;;;;;;;43.20;19.20;;;;;;;-2.19;84.32;100048.19;5013958;28;20033;-80
2021/12/14 02:38:27;;;;;;;45.15;19.35;;;;;;;-2.22;84.79;100054.78;5014646;28;20061;-80
2021/12/14 02:41:01;;;;;;;34.63;18.00;;;;;;;-2.22;84.90;100053.13;5033842;28;20041;-80
2021/12/14 02:43:46;;;;;;;39.53;18.13;;;;;;;-2.26;84.58;100055.41;5040723;28;20064;-81
2021/12/14 02:46:24;;;;;;;38.17;17.40;;;;;;;-2.30;85.19;100044.22;5013879;28;20041;-81
2021/12/14 02:48:58;;;;;;;35.65;18.20;;;;;;;-2.27;85.04;100059.63;5020689;28;20534;-81
2021/12/14 02:51:32;;;;;;;35.63;16.60;;;;;;;-2.30;84.99;100052.69;5001739;28;20059;-79
2021/12/14 02:54:03;;;;;;;35.17;17.45;;;;;;;-2.32;85.37;100051.75;5000902;28;20073;-81
2021/12/14 02:56:30;;;;;;;38.47;17.38;;;;;;;-2.32;85.53;100050.88;5033848;28;20048;-80
2021/12/14 02:59:01;;;;;;;32.72;16.77;;;;;;;-2.35;85.35;100045.63;5000728;28;20508;-81
2021/12/14 03:01:26;;;;;;;35.00;16.88;;;;;;;-2.31;85.71;100053.50;5000862;28;20566;-81
2021/12/14 03:03:52;;;;;;;36.83;18.08;;;;;;;-2.31;85.69;100050.09;5015083;28;20037;-81
2021/12/14 03:06:23;;;;;;;;;;;;;;;-2.34;85.82;100050.81;5033538;28;20106;-81
2021/12/14 03:09:06;;;;;;;40.13;17.00;;;;;;;-2.35;85.20;100045.63;5034238;28;19927;-80
2021/12/14 03:11:32;;;;;;;35.10;17.15;;;;;;;-2.35;85.74;100058.34;5019062;28;20033;-79
2021/12/14 03:13:58;;;;;;;33.72;17.20;;;;;;;-2.37;85.64;100058.25;5033254;28;20036;-80
2021/12/14 03:16:27;;;;;;;39.78;17.55;;;;;;;-2.36;85.16;100054.06;5000026;28;20041;-81
2021/12/14 03:18:54;;;;;;;35.63;16.60;;;;;;;-2.35;85.43;100060.88;4997557;28;20038;-82
2021/12/14 03:21:25;;;;;;;36.88;17.23;;;;;;;-2.35;85.70;100063.41;5018812;28;20033;-80
2021/12/14 03:23:54;;;;;;;32.85;17.42;;;;;;;-2.37;85.25;100050.66;5016881;28;20041;-80
2021/12/14 03:26:22;;;;;;;30.35;15.95;;;;;;;-2.31;85.42;100043.34;5013323;28;20219;-80
2021/12/14 03:28:50;;;;;;;32.45;16.83;;;;;;;-2.20;86.16;100049.00;5030692;28;20128;-81
2021/12/14 03:31:22;;;;;;;36.97;18.20;;;;;;;-2.15;85.79;100057.75;5000049;28;20120;-82
2021/12/14 03:33:58;;;;;;;36.40;17.50;;;;;;;-2.12;85.20;100049.38;5013524;28;20327;-80
2021/12/14 03:36:33;;;;;;;32.38;16.55;;;;;;;-2.10;85.23;100038.53;5024657;28;20157;-81
2021/12/14 03:39:05;;;;;;;30.73;16.35;;;;;;;-2.08;84.79;100047.09;5032739;28;20053;-80
2021/12/14 03:41:49;;;;;;;35.08;17.80;;;;;;;-2.15;84.46;100047.56;5000277;28;20065;-80
2021/12/14 03:44:22;;;;;;;39.92;18.60;;;;;;;-2.17;84.38;100046.59;5030367;28;20416;-81
2021/12/14 03:46:58;;;;;;;36.88;17.90;;;;;;;-2.16;84.44;100043.25;5025376;28;20037;-81
2021/12/14 03:49:30;;;;;;;32.70;17.13;;;;;;;-2.15;85.05;100045.03;5036541;28;20057;-80
2021/12/14 03:51:57;;;;;;;38.35;17.85;;;;;;;-2.09;84.80;100044.47;4996379;28;20065;-83
2021/12/14 03:54:24;;;;;;;38.50;17.27;;;;;;;-2.03;85.21;100038.81;5004925;28;20033;-80
2021/12/14 03:56:50;;;;;;;36.92;17.67;;;;;;;-2.02;84.42;100035.47;5016307;28;20094;-81
2021/12/14 03:59:18;;;;;;;37.75;17.00;;;;;;;-1.99;84.39;100033.97;5000417;28;20382;-80
2021/12/14 04:01:46;;;;;;;37.03;18.23;;;;;;;-2.00;84.64;100039.88;5015917;28;20034;-80
2021/12/14 04:04:25;;;;;;;34.92;18.45;;;;;;;-1.97;85.46;100034.94;4996283;28;20026;-79
2021/12/14 04:06:53;;;;;;;38.70;18.02;;;;;;;-1.97;84.92;100034.06;5020599;28;20054;-80
2021/12/14 04:09:21;;;;;;;40.83;18.42;;;;;;;-1.93;84.75;100038.50;4998251;28;20075;-81
2021/12/14 04:11:46;;;;;;;39.63;18.83;;;;;;;-1.95;84.93;100035.03;5005608;28;20037;-81
2021/12/14 04:14:12;;;;;;;40.15;18.60;;;;;;;-1.93;84.70;100041.03;4996210;28;20041;-80
2021/12/14 04:16:40;;;;;;;39.33;19.40;;;;;;;-1.99;84.69;100041.59;4999334;28;20041;-80
2021/12/14 04:19:07;;;;;;;38.72;17.38;;;;;;;-2.00;84.74;100036.47;4997158;28;20061;-80
2021/12/14 04:21:34;;;;;;;40.78;18.02;;;;;;;-1.99;84.87;100030.56;5032412;28;20111;-81
2021/12/14 04:24:01;;;;;;;35.10;17.95;;;;;;;-2.05;84.92;100032.00;5013962;28;20493;-80
2021/12/14 04:26:28;;;;;;;40.65;18.75;;;;;;;-2.07;84.84;100036.13;5023631;28;20079;-81
2021/12/14 04:28:56;;;;;;;38.20;19.13;;;;;;;-2.06;84.86;100035.34;5015673;28;20138;-81
2021/12/14 04:31:22;;;;;;;38.20;18.80;;;;;;;-2.10;84.59;100035.97;5015504;28;20476;-81
2021/12/14 04:33:50;;;;;;;38.40;19.73;;;;;;;-2.10;84.88;100043.59;4999244;28;20069;-80
2021/12/14 04:36:20;;;;;;;35.80;17.70;;;;;;;-2.10;85.16;100041.06;5011977;28;20125;-80
2021/12/14 04:39:02;;;;;;;37.47;18.67;;;;;;;-2.06;85.56;100047.19;5011320;28;20136;-80
2021/12/14 04:52:34;;;;;;;37.33;18.95;;;;;;;-2.12;84.95;100044.31;5031638;28;20060;-81
2021/12/14 04:55:07;;;;;;;37.10;18.98;;;;;;;-2.16;85.00;100040.72;4999471;28;20120;-82
2021/12/14 04:57:41;;;;;;;36.88;18.73;;;;;;;-2.12;84.79;100060.44;5015251;28;20037;-81
2021/12/14 05:00:22;;;;;;;39.30;18.63;;;;;;;-2.15;85.52;100065.38;5015463;28;20044;-81
2021/12/14 05:02:58;;;;;;;37.10;18.30;;;;;;;-2.18;85.19;100049.94;5028260;28;20365;-81
2021/12/14 05:05:34;;;;;;;37.17;18.88;;;;;;;-2.17;85.41;100061.84;4986934;28;20053;-80
2021/12/14 05:11:05;;;;;;;39.50;19.80;;;;;;;-2.11;85.59;100059.66;4984675;28;20081;-80
2021/12/14 05:13:44;;;;;;;41.10;19.92;;;;;;;-2.09;85.55;100068.22;5016110;28;20049;-81
2021/12/14 05:16:22;;;;;;;43.72;20.80;;;;;;;-2.10;85.14;100076.66;5000323;28;20431;-80
2021/12/14 05:18:51;;;;;;;39.42;20.23;;;;;;;-2.13;85.12;100067.97;5001948;28;20038;-79
2021/12/14 05:21:27;;;;;;;37.67;19.17;;;;;;;-2.11;84.99;100071.47;5000920;28;20030;-80
2021/12/14 05:23:53;;;;;;;45.08;19.55;;;;;;;-2.12;85.27;100075.69;5002408;28;20472;-81
2021/12/14 05:26:21;;;;;;;40.13;19.33;;;;;;;-2.16;84.75;100083.06;4983938;28;20377;-81
2021/12/14 05:28:47;;;;;;;35.80;17.10;;;;;;;-2.20;84.82;100087.13;5015797;28;20072;-81
2021/12/14 05:31:17;;;;;;;33.63;17.17;;;;;;;-2.19;84.99;100093.94;5004851;28;20040;-81
2021/12/14 05:33:46;;;;;;;32.22;16.15;;;;;;;-2.24;84.98;100087.75;5019816;28;20140;-79
2021/12/14 05:36:32;;;;;;;33.53;17.05;;;;;;;-2.28;85.06;100096.00;5021851;28;20140;-80
2021/12/14 05:39:05;;;;;;;31.00;16.27;;;;;;;-2.29;85.19;100094.25;5001394;28;20136;-80
2021/12/14 05:44:44;;;;;;;33.33;17.33;;;;;;;-2.36;85.13;100098.13;5006803;28;20086;-81
2021/12/14 05:47:16;;;;;;;33.17;17.17;;;;;;;-2.33;84.65;100099.97;5003476;28;20042;-83
2021/12/14 05:49:55;;;;;;;31.65;16.45;;;;;;;-2.32;85.47;100104.25;5016951;28;20045;-80
2021/12/14 05:52:23;;;;;;;36.72;18.30;;;;;;;-2.37;85.20;100098.91;5035134;28;20048;-82
2021/12/14 05:54:50;;;;;;;34.45;16.95;;;;;;;-2.35;84.74;100091.38;5018325;28;20041;-81
2021/12/14 05:57:20;;;;;;;36.15;18.50;;;;;;;-2.36;85.11;100094.69;5000090;28;20057;-80
2021/12/14 05:59:46;;;;;;;33.60;16.75;;;;;;;-2.39;85.11;100095.41;5015279;28;20136;-81
2021/12/14 06:02:12;;;;;;;40.75;17.75;;;;;;;-2.34;85.60;100103.28;5015245;28;20121;-81
2021/12/14 06:04:47;;;;;;;35.85;16.65;;;;;;;-2.39;84.84;100105.56;5018717;28;20041;-81
2021/12/14 06:07:13;;;;;;;33.42;16.88;;;;;;;-2.42;85.21;100104.53;5005275;28;20057;-80
2021/12/14 06:09:42;;;;;;;35.50;16.73;;;;;;;-2.40;85.15;100102.94;5000538;28;20107;-81
2021/12/14 06:12:28;;;;;;;31.70;16.80;;;;;;;-2.32;84.68;100111.88;5015546;28;20044;-80
2021/12/14 06:14:58;;;;;;;39.38;17.70;;;;;;;-2.37;84.53;100115.81;5020889;28;20057;-81
2021/12/14 06:17:30;;;;;;;35.70;18.00;;;;;;;-2.37;84.80;100121.78;5027357;28;20041;-81
2021/12/14 06:20:11;;;;;;;35.97;16.88;;;;;;;-2.38;84.70;100116.63;5020735;28;20042;-81
2021/12/14 06:22:38;;;;;;;33.30;17.55;;;;;;;-2.33;85.28;100122.84;5018278;28;20045;-81
2021/12/14 06:25:09;;;;;;;36.65;17.00;;;;;;;-2.37;84.86;100110.75;5001643;28;20037;-82
2021/12/14 06:27:36;;;;;;;36.85;17.65;;;;;;;-2.34;84.36;100103.28;5002666;28;20033;-83
2021/12/14 06:30:06;;;;;;;34.05;16.65;;;;;;;-2.35;84.54;100097.31;5002566;28;20068;-80
2021/12/14 06:32:39;;;;;;;36.72;17.73;;;;;;;-2.28;84.75;100107.84;5018489;28;20049;-80
2021/12/14 06:35:07;;;;;;;39.13;17.55;;;;;;;-2.35;84.57;100104.94;5002227;28;20033;-82
2021/12/14 06:38:09;;;;;;;47.10;18.92;;;;;;;-2.27;84.69;100113.00;5034754;28;20036;-83
2021/12/14 06:40:40;;;;;;;41.60;19.02;;;;;;;-2.21;85.05;100105.69;5021888;28;20075;-80
2021/12/14 06:43:25;;;;;;;40.45;19.33;;;;;;;-2.16;84.76;100111.00;5042973;28;20123;-81
2021/12/14 06:45:55;;;;;;;37.30;19.90;;;;;;;-2.12;84.64;100116.34;5022563;28;20049;-81
2021/12/14 06:49:14;;;;;;;46.83;20.90;;;;;;;-2.05;85.05;100107.41;5019254;28;20515;-82
2021/12/14 06:51:48;;;;;;;45.38;20.77;;;;;;;-2.09;84.43;100111.44;5037897;28;20479;-81
2021/12/14 06:54:41;;;;;;;53.58;24.98;;;;;;;-2.05;83.86;100113.34;5025225;28;20555;-79
2021/12/14 06:57:25;;;;;;;41.90;21.25;;;;;;;-2.08;84.23;100108.09;5034472;28;20092;-81
2021/12/14 06:59:58;;;;;;;40.90;20.35;;;;;;;-2.06;84.04;100116.69;5003111;28;20052;-82
2021/12/14 07:02:30;;;;;;;41.05;19.75;;;;;;;-2.07;83.84;100119.13;5003579;28;20048;-82
2021/12/14 07:05:08;;;;;;;38.95;19.45;;;;;;;-2.10;84.06;100124.94;5019074;28;20136;-82
2021/12/14 07:07:41;;;;;;;38.75;18.65;;;;;;;-2.09;84.18;100121.59;5018863;28;20187;-80
2021/12/14 07:10:12;;;;;;;33.85;18.50;;;;;;;-2.11;83.89;100123.19;5018042;28;20037;-80
2021/12/14 07:12:39;;;;;;;48.25;19.90;;;;;;;-2.14;84.34;100117.94;5018374;28;20389;-81
2021/12/14 07:15:07;;;;;;;36.50;18.73;;;;;;;-2.09;84.52;100125.81;5017720;28;20034;-81
2021/12/14 07:17:43;;;;;;;34.83;19.52;;;;;;;-2.10;84.36;100124.94;5017462;28;20034;-80
2021/12/14 07:20:29;;;;;;;37.72;19.33;;;;;;;-2.10;84.85;100130.03;5017264;28;20048;-81
2021/12/14 07:23:06;;;;;;;38.08;19.23;;;;;;;-2.13;84.71;100119.69;5006671;28;20832;-80
2021/12/14 07:25:36;;;;;;;40.45;19.73;;;;;;;-2.09;84.58;100120.72;5033274;28;20045;-82
2021/12/14 07:28:13;;;;;;;36.97;19.40;;;;;;;-2.13;84.21;100127.31;5034287;28;20114;-82
2021/12/14 07:30:56;;;;;;;39.42;21.30;;;;;;;-2.12;84.11;100134.13;5017506;28;20440;-85
2021/12/14 07:33:31;;;;;;;43.13;21.90;;;;;;;-2.15;84.17;100128.91;5002023;28;20045;-80
2021/12/14 07:35:56;;;;;;;37.08;19.27;;;;;;;-2.11;84.76;100141.00;5001034;28;20045;-82
2021/12/14 07:38:28;;;;;;;38.13;17.98;;;;;;;-2.10;84.53;100136.78;5017269;28;20037;-81
2021/12/14 07:41:07;;;;;;;38.67;18.98;;;;;;;-2.10;84.34;100137.66;5033873;28;20048;-82
2021/12/14 07:43:38;;;;;;;45.38;21.63;;;;;;;-2.09;84.20;100141.06;5035581;28;20503;-84
2021/12/14 07:46:36;;;;;;;38.22;19.90;;;;;;;-2.07;84.67;100145.41;5016432;28;20400;-79
2021/12/14 07:49:06;;;;;;;42.13;20.75;;;;;;;-2.09;84.30;100141.94;5009216;28;20429;-81
2021/12/14 07:51:33;;;;;;;39.20;20.33;;;;;;;-2.06;83.93;100142.13;4996850;28;20042;-81
2021/12/14 07:54:13;;;;;;;38.33;18.77;;;;;;;-1.99;83.84;100142.44;5030703;28;20033;-82
2021/12/14 07:56:49;;;;;;;37.13;19.52;;;;;;;-1.93;84.07;100137.66;5013865;28;20041;-82
2021/12/14 07:59:22;;;;;;;39.35;19.15;;;;;;;-1.86;84.26;100139.75;5029744;28;20042;-81
2021/12/14 08:01:50;;;;;;;40.35;19.73;;;;;;;-1.84;83.40;100133.06;5014559;28;20489;-81
2021/12/14 08:04:16;;;;;;;35.60;18.20;;;;;;;-1.75;83.64;100133.53;5013555;28;20044;-80
2021/12/14 08:06:45;;;;;;;32.78;17.05;;;;;;;-1.73;83.39;100133.66;5013428;28;20046;-79
2021/12/14 08:09:33;;;;;;;40.03;19.52;;;;;;;-1.70;82.64;100129.56;5013788;28;20488;-80
2021/12/14 08:12:01;;;;;;;37.17;18.85;;;;;;;-1.58;82.36;100140.38;5013871;28;20120;-80
2021/12/14 08:14:28;;;;;;;34.33;17.88;;;;;;;-1.58;81.29;100131.88;5014497;28;20083;-80
2021/12/14 08:17:00;;;;;;;32.28;17.25;;;;;;;-1.57;80.07;100134.50;5029390;28;20073;-82
2021/12/14 08:19:34;;;;;;;32.80;19.27;;;;;;;-1.54;79.46;100129.56;5014044;28;20052;-79
2021/12/14 08:22:26;;;;;;;36.75;19.15;;;;;;;-1.45;79.59;100129.19;5036849;28;20047;-81
2021/12/14 08:24:52;;;;;;;31.48;16.63;;;;;;;-1.40;79.28;100111.59;5022123;28;20095;-81
2021/12/14 08:27:19;;;;;;;33.55;17.75;;;;;;;-1.27;79.22;100113.97;4998791;28;20030;-83
2021/12/14 08:29:48;;;;;;;31.35;17.17;;;;;;;-1.28;79.18;100112.22;5008173;28;20467;-81
2021/12/14 08:32:14;;;;;;;34.45;17.08;;;;;;;-1.29;78.31;100110.44;5016214;28;20044;-80
2021/12/14 08:34:44;;;;;;;33.40;16.95;;;;;;;-1.24;78.08;100110.69;5016024;28;20156;-81
2021/12/14 08:37:13;;;;;;;35.75;17.65;;;;;;;-1.16;78.31;100117.91;5015824;28;20033;-80
2021/12/14 08:39:49;;;;;;;33.05;17.00;;;;;;;-1.19;77.38;100109.25;4996344;28;20471;-80
2021/12/14 08:42:18;;;;;;;36.47;17.52;;;;;;;-1.15;77.70;100109.47;5019364;28;20412;-82
2021/12/14 08:44:52;;;;;;;34.30;17.27;;;;;;;-1.14;77.92;100113.78;5027199;28;20037;-82
2021/12/14 08:47:33;;;;;;;36.58;18.48;;;;;;;-1.06;77.54;100120.09;5000734;28;20033;-82
2021/12/14 08:50:01;;;;;;;36.28;19.13;;;;;;;-1.07;77.14;100123.47;5032592;28;20041;-84
2021/12/14 08:52:26;;;;;;;38.10;19.20;;;;;;;-1.14;77.48;100111.25;5012328;28;20029;-83
2021/12/14 08:54:52;;;;;;;36.28;18.80;;;;;;;-1.18;77.99;100093.19;4997395;28;20108;-83
2021/12/14 08:57:20;;;;;;;42.20;21.00;;;;;;;-1.08;78.05;100108.13;5007478;28;20092;-81
2021/12/14 08:59:48;;;;;;;40.58;21.92;;;;;;;-1.05;77.44;100113.38;4999729;28;20516;-81
2021/12/14 09:02:16;;;;;;;45.28;24.13;;;;;;;-1.09;77.46;100101.28;5014917;28;20029;-80
2021/12/14 09:05:09;;;;;;;42.28;22.13;;;;;;;-1.03;78.04;100105.00;4997740;28;20049;-84
2021/12/14 09:07:35;;;;;;;40.80;23.00;;;;;;;-1.02;78.54;100099.09;4996030;28;20420;-84
2021/12/14 09:10:06;;;;;;;46.20;24.55;;;;;;;-1.04;78.73;100103.25;5015667;28;20119;-83
2021/12/14 09:12:36;;;;;;;42.90;23.15;;;;;;;-1.12;78.83;100107.09;4999472;28;20076;-79
2021/12/14 09:15:08;;;;;;;47.05;25.35;;;;;;;-1.19;79.23;100104.16;5015739;28;20052;-83
2021/12/14 09:17:34;;;;;;;49.08;24.65;;;;;;;-1.12;80.03;100114.72;5016006;28;20132;-84
2021/12/14 09:20:04;;;;;;;42.88;23.52;;;;;;;-1.25;79.65;100102.19;5015768;28;20095;-81
2021/12/14 09:22:32;;;;;;;50.58;24.77;;;;;;;-1.25;80.16;100111.50;4996613;28;20041;-79
2021/12/14 09:24:59;;;;;;;49.50;25.77;;;;;;;-1.33;80.07;100094.19;5012241;28;20381;-80
2021/12/14 09:27:26;;;;;;;47.45;25.10;;;;;;;-1.27;80.15;100108.00;5028434;28;20128;-81
2021/12/14 09:29:52;;;;;;;49.30;24.70;;;;;;;-1.31;80.27;100106.97;5015766;28;20612;-81
2021/12/14 09:32:23;;;;;;;51.63;24.65;;;;;;;-1.30;79.93;100113.81;5015348;28;20029;-79
2021/12/14 09:34:48;;;;;;;47.03;23.85;;;;;;;-1.33;80.01;100103.47;5031947;28;20087;-82
2021/12/14 09:37:14;;;;;;;46.17;22.58;;;;;;;-1.29;80.11;100111.31;5015448;28;20033;-82
2021/12/14 09:39:45;;;;;;;;;;;;;;;-1.55;79.79;100104.94;5032586;28;20049;-79
2021/12/14 09:42:13;;;;;;;51.97;25.23;;;;;;;-1.58;80.51;100088.63;5032544;28;20300;-79
2021/12/14 09:44:39;;;;;;;46.33;23.75;;;;;;;-1.47;80.83;100095.13;5014621;28;20030;-79
2021/12/14 09:47:12;;;;;;;43.03;22.35;;;;;;;-1.40;80.39;100102.28;5031087;28;20029;-77
2021/12/14 09:49:38;;;;;;;38.55;21.65;;;;;;;-1.31;79.47;100107.84;5015916;28;20374;-78
2021/12/14 09:52:10;;;;;;;42.53;22.48;;;;;;;-1.35;78.85;100102.53;5031831;28;20121;-78
2021/12/14 09:54:36;;;;;;;40.03;21.00;;;;;;;-1.36;78.88;100100.78;4998733;28;20056;-78
2021/12/14 09:57:14;;;;;;;43.17;21.80;;;;;;;-1.27;78.67;100108.00;4998796;28;20033;-79
2021/12/14 09:59:40;;;;;;;40.17;20.95;;;;;;;-1.24;78.50;100108.13;5032700;28;20052;-79
2021/12/14 10:02:18;;;;;;;44.38;22.00;;;;;;;-1.26;78.34;100105.53;5014951;28;20033;-78
2021/12/14 10:04:50;;;;;;;37.25;20.17;;;;;;;-1.18;78.52;100100.81;5015675;28;20060;-79
2021/12/14 10:07:16;;;;;;;40.03;20.60;;;;;;;-1.16;78.11;100104.31;5031002;28;20484;-79
2021/12/14 10:09:45;;;;;;;39.35;22.25;;;;;;;-1.18;78.60;100094.06;5016118;28;20107;-81
2021/12/14 10:15:00;;;;;;;43.45;23.35;;;;;;;-1.11;78.48;100101.19;5033182;28;20103;-79
2021/12/14 10:17:26;;;;;;;42.38;22.30;;;;;;;-1.09;78.29;100102.16;5035664;28;20038;-78
2021/12/14 10:19:52;;;;;;;42.13;22.55;;;;;;;-1.19;77.72;100097.41;5033992;28;20045;-78
2021/12/14 10:22:24;;;;;;;42.28;22.38;;;;;;;-1.29;77.78;100085.00;5001832;28;20060;-78
2021/12/14 10:24:54;;;;;;;44.33;23.08;;;;;;;-1.17;78.09;100100.91;5000099;28;20087;-79
2021/12/14 10:27:21;;;;;;;36.20;20.58;;;;;;;-1.10;78.05;100105.50;5048199;28;20037;-81
2021/12/14 10:29:47;;;;;;;42.72;22.63;;;;;;;-1.11;77.32;100100.31;5032684;28;20064;-81
2021/12/14 10:32:19;;;;;;;41.33;22.73;;;;;;;-1.08;77.40;100106.44;5036862;28;20080;-81
2021/12/14 10:34:48;;;;;;;42.70;23.52;;;;;;;-1.15;77.50;100084.00;5033828;28;20065;-80
2021/12/14 10:37:27;;;;;;;45.83;24.95;;;;;;;-1.02;78.03;100108.41;5033374;28;20073;-78
2021/12/14 10:45:05;;;;;;;47.50;25.08;;;;;;;-0.99;77.72;100103.47;5021926;28;20038;-78
2021/12/14 10:47:31;;;;;;;48.60;24.77;;;;;;;-1.07;77.59;100104.75;5017076;28;20612;-79
2021/12/14 10:49:57;;;;;;;;;;;;;;;-1.10;77.74;100102.97;4984066;28;20061;-80
2021/12/14 10:52:25;;;;;;;48.28;25.42;;;;;;;-1.08;78.44;100108.97;5016377;28;20312;-80
2021/12/14 10:54:54;;;;;;;40.85;21.75;;;;;;;-1.15;78.48;100096.75;5027538;28;20076;-79
2021/12/14 10:57:21;;;;;;;45.45;22.67;;;;;;;-1.12;78.90;100099.44;4999754;28;20121;-79
2021/12/14 10:59:49;;;;;;;40.40;21.27;;;;;;;-1.17;78.67;100088.16;5013393;28;20041;-81
2021/12/14 11:02:15;;;;;;;43.80;23.20;;;;;;;-1.11;79.31;100098.63;5016036;28;20111;-81
2021/12/14 11:04:53;;;;;;;41.08;21.25;;;;;;;-1.14;79.28;100085.78;5034115;28;20432;-82
2021/12/14 11:07:26;;;;;;;37.88;20.25;;;;;;;-1.10;79.30;100095.31;5017189;28;20053;-80
2021/12/14 11:09:55;;;;;;;38.90;20.88;;;;;;;-1.13;79.46;100087.53;5034036;28;20044;-81
2021/12/14 11:12:29;;;;;;;46.30;23.58;;;;;;;-1.11;79.20;100091.00;5016708;28;20382;-83
2021/12/14 11:15:15;;;;;;;42.15;22.90;;;;;;;-1.09;79.64;100093.66;5032839;28;20061;-80
2021/12/14 11:20:33;;;;;;;45.33;23.35;;;;;;;-1.25;79.44;100094.53;5019143;28;20444;-80
2021/12/14 11:23:17;;;;;;;42.20;23.30;;;;;;;-1.28;79.49;100086.78;5017246;28;20412;-82
2021/12/14 11:25:49;;;;;;;42.65;21.88;;;;;;;-1.17;79.92;100095.81;4986946;28;20045;-84
2021/12/14 11:28:19;;;;;;;40.97;22.52;;;;;;;-1.27;78.85;100085.97;5042889;28;20381;-84
2021/12/14 11:31:16;;;;;;;43.15;20.55;;;;;;;-1.26;79.20;100074.13;5017213;28;20136;-81
2021/12/14 11:33:59;;;;;;;39.80;20.08;;;;;;;-1.03;79.03;100094.81;5028987;28;20049;-78
2021/12/14 11:36:46;;;;;;;33.15;18.63;;;;;;;-0.93;79.06;100073.19;5016476;28;20394;-77
2021/12/14 11:39:29;;;;;;;36.83;19.20;;;;;;;-0.73;78.98;100081.81;5017433;28;20040;-79
2021/12/14 11:41:59;;;;;;;34.83;19.58;;;;;;;-0.74;77.83;100080.03;5033063;28;20194;-77
2021/12/14 11:44:27;;;;;;;38.95;20.08;;;;;;;-0.77;77.64;100077.38;5032461;28;20048;-79
2021/12/14 11:46:59;;;;;;;34.47;19.05;;;;;;;-0.75;77.19;100069.78;5016255;28;20025;-78
2021/12/14 11:49:40;;;;;;;35.53;18.60;;;;;;;-0.75;77.59;100075.75;5032260;28;20041;-82
2021/12/14 11:52:06;;;;;;;36.28;19.25;;;;;;;-0.75;77.02;100078.31;5045594;28;20047;-79
2021/12/14 11:54:43;;;;;;;39.63;21.48;;;;;;;-0.76;77.24;100079.09;5034245;28;20096;-78
2021/12/14 11:57:09;;;;;;;37.33;19.00;;;;;;;-0.72;76.83;100080.13;5032926;28;20103;-78
2021/12/14 11:59:34;;;;;;;37.20;19.17;;;;;;;-0.76;76.80;100084.22;4999656;28;20041;-79
2021/12/14 12:02:03;;;;;;;33.65;17.80;;;;;;;-0.68;76.91;100082.03;5032193;28;20073;-79
2021/12/14 12:04:36;;;;;;;33.53;18.25;;;;;;;-0.71;76.98;100087.84;5033017;28;20043;-77